sensor_id;sensor_type;location;lat;lon;timestamp;P1;durP1;ratioP1;P2;durP2;ratioP2
37847;SDS011;23688;33.130;-117.188;2022-07-05T00:01:09;19.67;;;3.08;;
37847;SDS011;23688;33.130;-117.188;2022-07-05T00:03:35;16.17;;;2.95;;
37847;SDS011;23688;33.130;-117.188;2022-07-05T00:06:02;17.90;;;2.75;;
37847;SDS011;23688;33.130;-117.188;2022-07-05T00:08:28;14.13;;;3.00;;
37847;SDS011;23688;33.130;-117.188;2022-07-05T00:10:55;12.15;;;3.17;;
37847;SDS011;23688;33.130;-117.188;2022-07-05T00:13:21;10.43;;;2.92;;
37847;SDS011;23688;33.130;-117.188;2022-07-05T00:15:47;11.68;;;2.58;;
37847;SDS011;23688;33.130;-117.188;2022-07-05T00:18:15;15.02;;;3.35;;
37847;SDS011;23688;33.130;-117.188;2022-07-05T00:20:41;9.90;;;2.47;;
37847;SDS011;23688;33.130;-117.188;2022-07-05T00:23:07;11.70;;;2.88;;
37847;SDS011;23688;33.130;-117.188;2022-07-05T00:25:34;20.83;;;3.28;;
37847;SDS011;23688;33.130;-117.188;2022-07-05T00:28:00;10.70;;;3.22;;
37847;SDS011;23688;33.130;-117.188;2022-07-05T00:30:26;12.82;;;3.15;;
37847;SDS011;23688;33.130;-117.188;2022-07-05T00:32:53;9.10;;;2.55;;
37847;SDS011;23688;33.130;-117.188;2022-07-05T00:35:19;14.23;;;2.80;;
37847;SDS011;23688;33.130;-117.188;2022-07-05T00:37:45;15.07;;;4.10;;
37847;SDS011;23688;33.130;-117.188;2022-07-05T00:40:11;12.38;;;3.20;;
37847;SDS011;23688;33.130;-117.188;2022-07-05T00:42:38;11.95;;;2.97;;
37847;SDS011;23688;33.130;-117.188;2022-07-05T00:45:05;13.98;;;2.92;;
37847;SDS011;23688;33.130;-117.188;2022-07-05T00:47:33;11.02;;;2.72;;
37847;SDS011;23688;33.130;-117.188;2022-07-05T00:50:00;17.48;;;3.08;;
37847;SDS011;23688;33.130;-117.188;2022-07-05T00:52:26;15.38;;;3.53;;
37847;SDS011;23688;33.130;-117.188;2022-07-05T00:54:53;12.45;;;2.72;;
37847;SDS011;23688;33.130;-117.188;2022-07-05T00:57:21;9.20;;;2.90;;
37847;SDS011;23688;33.130;-117.188;2022-07-05T00:59:49;12.00;;;2.78;;
37847;SDS011;23688;33.130;-117.188;2022-07-05T01:02:16;11.83;;;3.00;;
37847;SDS011;23688;33.130;-117.188;2022-07-05T01:04:46;15.57;;;3.20;;
37847;SDS011;23688;33.130;-117.188;2022-07-05T01:07:17;11.63;;;2.90;;
37847;SDS011;23688;33.130;-117.188;2022-07-05T01:09:47;14.02;;;2.90;;
37847;SDS011;23688;33.130;-117.188;2022-07-05T01:12:13;11.18;;;3.13;;
37847;SDS011;23688;33.130;-117.188;2022-07-05T01:14:41;21.27;;;3.63;;
37847;SDS011;23688;33.130;-117.188;2022-07-05T01:17:08;11.75;;;3.25;;
37847;SDS011;23688;33.130;-117.188;2022-07-05T01:19:34;12.88;;;2.78;;
37847;SDS011;23688;33.130;-117.188;2022-07-05T01:22:02;12.48;;;3.95;;
37847;SDS011;23688;33.130;-117.188;2022-07-05T01:24:31;11.88;;;2.72;;
37847;SDS011;23688;33.130;-117.188;2022-07-05T01:26:58;16.45;;;3.50;;
37847;SDS011;23688;33.130;-117.188;2022-07-05T01:29:24;14.27;;;4.03;;
37847;SDS011;23688;33.130;-117.188;2022-07-05T01:31:51;15.82;;;4.30;;
37847;SDS011;23688;33.130;-117.188;2022-07-05T01:34:19;12.13;;;2.83;;
37847;SDS011;23688;33.130;-117.188;2022-07-05T01:36:45;14.23;;;3.28;;
37847;SDS011;23688;33.130;-117.188;2022-07-05T01:39:11;13.65;;;3.13;;
37847;SDS011;23688;33.130;-117.188;2022-07-05T01:41:38;11.23;;;3.25;;
37847;SDS011;23688;33.130;-117.188;2022-07-05T01:44:04;17.45;;;3.42;;
37847;SDS011;23688;33.130;-117.188;2022-07-05T01:46:31;17.90;;;2.90;;
37847;SDS011;23688;33.130;-117.188;2022-07-05T01:49:06;13.13;;;3.00;;
37847;SDS011;23688;33.130;-117.188;2022-07-05T01:51:41;10.88;;;2.78;;
37847;SDS011;23688;33.130;-117.188;2022-07-05T01:54:20;11.02;;;2.63;;
37847;SDS011;23688;33.130;-117.188;2022-07-05T01:56:46;12.05;;;3.38;;
37847;SDS011;23688;33.130;-117.188;2022-07-05T01:59:13;18.65;;;3.28;;
37847;SDS011;23688;33.130;-117.188;2022-07-05T02:01:39;13.45;;;3.42;;
37847;SDS011;23688;33.130;-117.188;2022-07-05T02:04:08;8.80;;;2.92;;
37847;SDS011;23688;33.130;-117.188;2022-07-05T02:06:36;12.60;;;3.05;;
37847;SDS011;23688;33.130;-117.188;2022-07-05T02:09:04;17.27;;;3.30;;
37847;SDS011;23688;33.130;-117.188;2022-07-05T02:11:31;18.15;;;3.30;;
37847;SDS011;23688;33.130;-117.188;2022-07-05T02:13:58;17.90;;;2.92;;
37847;SDS011;23688;33.130;-117.188;2022-07-05T02:16:27;15.60;;;3.08;;
37847;SDS011;23688;33.130;-117.188;2022-07-05T02:18:54;11.05;;;3.13;;
37847;SDS011;23688;33.130;-117.188;2022-07-05T02:21:21;16.63;;;4.43;;
37847;SDS011;23688;33.130;-117.188;2022-07-05T02:23:47;12.82;;;3.30;;
37847;SDS011;23688;33.130;-117.188;2022-07-05T02:26:14;9.18;;;3.15;;
37847;SDS011;23688;33.130;-117.188;2022-07-05T02:28:40;15.52;;;3.63;;
37847;SDS011;23688;33.130;-117.188;2022-07-05T02:31:08;12.23;;;3.70;;
37847;SDS011;23688;33.130;-117.188;2022-07-05T02:33:34;11.38;;;3.25;;
37847;SDS011;23688;33.130;-117.188;2022-07-05T02:36:11;12.68;;;3.30;;
37847;SDS011;23688;33.130;-117.188;2022-07-05T02:38:39;9.37;;;2.97;;
37847;SDS011;23688;33.130;-117.188;2022-07-05T02:41:06;13.65;;;3.50;;
37847;SDS011;23688;33.130;-117.188;2022-07-05T02:43:33;14.63;;;3.30;;
37847;SDS011;23688;33.130;-117.188;2022-07-05T02:46:00;16.52;;;2.97;;
37847;SDS011;23688;33.130;-117.188;2022-07-05T02:48:27;13.23;;;3.03;;
37847;SDS011;23688;33.130;-117.188;2022-07-05T02:50:53;13.35;;;3.30;;
37847;SDS011;23688;33.130;-117.188;2022-07-05T02:53:19;11.02;;;3.17;;
37847;SDS011;23688;33.130;-117.188;2022-07-05T02:55:46;12.48;;;3.17;;
37847;SDS011;23688;33.130;-117.188;2022-07-05T02:58:12;14.30;;;3.30;;
37847;SDS011;23688;33.130;-117.188;2022-07-05T03:00:39;12.10;;;3.38;;
37847;SDS011;23688;33.130;-117.188;2022-07-05T03:03:05;15.98;;;3.75;;
37847;SDS011;23688;33.130;-117.188;2022-07-05T03:05:32;17.90;;;3.30;;
37847;SDS011;23688;33.130;-117.188;2022-07-05T03:08:00;16.35;;;3.20;;
37847;SDS011;23688;33.130;-117.188;2022-07-05T03:10:26;14.45;;;3.72;;
37847;SDS011;23688;33.130;-117.188;2022-07-05T03:12:53;21.40;;;5.95;;
37847;SDS011;23688;33.130;-117.188;2022-07-05T03:15:19;18.05;;;4.03;;
37847;SDS011;23688;33.130;-117.188;2022-07-05T03:17:45;17.10;;;3.58;;
37847;SDS011;23688;33.130;-117.188;2022-07-05T03:20:12;23.90;;;10.70;;
37847;SDS011;23688;33.130;-117.188;2022-07-05T03:22:41;15.40;;;5.80;;
37847;SDS011;23688;33.130;-117.188;2022-07-05T03:25:07;16.05;;;4.45;;
37847;SDS011;23688;33.130;-117.188;2022-07-05T03:27:34;15.73;;;4.18;;
37847;SDS011;23688;33.130;-117.188;2022-07-05T03:30:01;27.23;;;8.15;;
37847;SDS011;23688;33.130;-117.188;2022-07-05T03:32:31;20.77;;;6.38;;
37847;SDS011;23688;33.130;-117.188;2022-07-05T03:34:57;15.65;;;6.22;;
37847;SDS011;23688;33.130;-117.188;2022-07-05T03:37:23;23.45;;;6.18;;
37847;SDS011;23688;33.130;-117.188;2022-07-05T03:39:50;21.27;;;9.25;;
37847;SDS011;23688;33.130;-117.188;2022-07-05T03:42:16;20.02;;;10.35;;
37847;SDS011;23688;33.130;-117.188;2022-07-05T03:44:42;18.95;;;6.57;;
37847;SDS011;23688;33.130;-117.188;2022-07-05T03:47:09;12.50;;;4.45;;
37847;SDS011;23688;33.130;-117.188;2022-07-05T03:49:35;21.35;;;6.25;;
37847;SDS011;23688;33.130;-117.188;2022-07-05T03:52:01;19.08;;;5.22;;
37847;SDS011;23688;33.130;-117.188;2022-07-05T03:54:28;19.30;;;7.15;;
37847;SDS011;23688;33.130;-117.188;2022-07-05T03:56:54;20.75;;;7.00;;
37847;SDS011;23688;33.130;-117.188;2022-07-05T03:59:20;20.98;;;5.07;;
37847;SDS011;23688;33.130;-117.188;2022-07-05T04:01:47;21.77;;;6.63;;
37847;SDS011;23688;33.130;-117.188;2022-07-05T04:04:13;18.35;;;5.43;;
37847;SDS011;23688;33.130;-117.188;2022-07-05T04:06:39;21.80;;;4.00;;
37847;SDS011;23688;33.130;-117.188;2022-07-05T04:09:06;17.98;;;4.28;;
37847;SDS011;23688;33.130;-117.188;2022-07-05T04:11:32;19.88;;;4.47;;
37847;SDS011;23688;33.130;-117.188;2022-07-05T04:13:58;11.73;;;4.35;;
37847;SDS011;23688;33.130;-117.188;2022-07-05T04:16:25;22.33;;;5.57;;
37847;SDS011;23688;33.130;-117.188;2022-07-05T04:18:51;17.55;;;5.18;;
37847;SDS011;23688;33.130;-117.188;2022-07-05T04:21:17;23.63;;;4.07;;
37847;SDS011;23688;33.130;-117.188;2022-07-05T04:23:44;15.32;;;4.53;;
37847;SDS011;23688;33.130;-117.188;2022-07-05T04:26:10;17.20;;;4.13;;
37847;SDS011;23688;33.130;-117.188;2022-07-05T04:28:36;12.57;;;3.45;;
37847;SDS011;23688;33.130;-117.188;2022-07-05T04:31:03;19.25;;;3.72;;
37847;SDS011;23688;33.130;-117.188;2022-07-05T04:33:29;17.60;;;3.97;;
37847;SDS011;23688;33.130;-117.188;2022-07-05T04:35:55;16.25;;;3.70;;
37847;SDS011;23688;33.130;-117.188;2022-07-05T04:38:22;20.17;;;3.58;;
37847;SDS011;23688;33.130;-117.188;2022-07-05T04:40:48;9.93;;;4.00;;
37847;SDS011;23688;33.130;-117.188;2022-07-05T04:43:14;13.52;;;4.63;;
37847;SDS011;23688;33.130;-117.188;2022-07-05T04:45:41;13.98;;;4.32;;
37847;SDS011;23688;33.130;-117.188;2022-07-05T04:48:08;16.02;;;4.22;;
37847;SDS011;23688;33.130;-117.188;2022-07-05T04:50:35;13.23;;;3.78;;
37847;SDS011;23688;33.130;-117.188;2022-07-05T04:53:01;17.63;;;3.90;;
37847;SDS011;23688;33.130;-117.188;2022-07-05T04:55:27;36.20;;;18.05;;
37847;SDS011;23688;33.130;-117.188;2022-07-05T04:57:54;12.27;;;4.90;;
37847;SDS011;23688;33.130;-117.188;2022-07-05T05:00:20;31.13;;;4.68;;
37847;SDS011;23688;33.130;-117.188;2022-07-05T05:02:46;16.95;;;5.22;;
37847;SDS011;23688;33.130;-117.188;2022-07-05T05:05:12;18.40;;;4.78;;
37847;SDS011;23688;33.130;-117.188;2022-07-05T05:07:42;16.42;;;4.65;;
37847;SDS011;23688;33.130;-117.188;2022-07-05T05:10:09;17.13;;;5.13;;
37847;SDS011;23688;33.130;-117.188;2022-07-05T05:12:36;14.52;;;4.60;;
37847;SDS011;23688;33.130;-117.188;2022-07-05T05:15:03;14.40;;;4.60;;
37847;SDS011;23688;33.130;-117.188;2022-07-05T05:17:37;14.40;;;3.92;;
37847;SDS011;23688;33.130;-117.188;2022-07-05T05:20:15;14.63;;;4.30;;
37847;SDS011;23688;33.130;-117.188;2022-07-05T05:22:42;24.08;;;4.25;;
37847;SDS011;23688;33.130;-117.188;2022-07-05T05:25:09;15.95;;;4.30;;
37847;SDS011;23688;33.130;-117.188;2022-07-05T05:27:43;16.48;;;4.30;;
37847;SDS011;23688;33.130;-117.188;2022-07-05T05:30:14;11.88;;;4.22;;
37847;SDS011;23688;33.130;-117.188;2022-07-05T05:32:43;14.85;;;3.60;;
37847;SDS011;23688;33.130;-117.188;2022-07-05T05:35:09;14.45;;;4.03;;
37847;SDS011;23688;33.130;-117.188;2022-07-05T05:37:45;20.52;;;4.82;;
37847;SDS011;23688;33.130;-117.188;2022-07-05T05:40:13;18.95;;;5.40;;
37847;SDS011;23688;33.130;-117.188;2022-07-05T05:42:40;9.32;;;3.75;;
37847;SDS011;23688;33.130;-117.188;2022-07-05T05:45:07;14.48;;;4.22;;
37847;SDS011;23688;33.130;-117.188;2022-07-05T05:47:33;9.65;;;3.97;;
37847;SDS011;23688;33.130;-117.188;2022-07-05T05:50:07;16.55;;;4.55;;
37847;SDS011;23688;33.130;-117.188;2022-07-05T05:52:34;12.63;;;4.60;;
37847;SDS011;23688;33.130;-117.188;2022-07-05T05:55:00;10.98;;;3.67;;
37847;SDS011;23688;33.130;-117.188;2022-07-05T05:57:27;15.20;;;4.70;;
37847;SDS011;23688;33.130;-117.188;2022-07-05T05:59:54;18.33;;;4.70;;
37847;SDS011;23688;33.130;-117.188;2022-07-05T06:02:20;11.27;;;4.38;;
37847;SDS011;23688;33.130;-117.188;2022-07-05T06:04:46;11.95;;;3.83;;
37847;SDS011;23688;33.130;-117.188;2022-07-05T06:07:12;12.93;;;4.35;;
37847;SDS011;23688;33.130;-117.188;2022-07-05T06:09:39;12.57;;;3.75;;
37847;SDS011;23688;33.130;-117.188;2022-07-05T06:12:05;16.20;;;4.63;;
37847;SDS011;23688;33.130;-117.188;2022-07-05T06:14:32;13.00;;;4.60;;
37847;SDS011;23688;33.130;-117.188;2022-07-05T06:16:58;13.57;;;4.40;;
37847;SDS011;23688;33.130;-117.188;2022-07-05T06:19:24;19.15;;;5.22;;
37847;SDS011;23688;33.130;-117.188;2022-07-05T06:21:51;13.40;;;4.03;;
37847;SDS011;23688;33.130;-117.188;2022-07-05T06:24:17;15.35;;;4.38;;
37847;SDS011;23688;33.130;-117.188;2022-07-05T06:26:43;19.58;;;4.38;;
37847;SDS011;23688;33.130;-117.188;2022-07-05T06:29:10;19.58;;;5.57;;
37847;SDS011;23688;33.130;-117.188;2022-07-05T06:31:36;17.45;;;4.43;;
37847;SDS011;23688;33.130;-117.188;2022-07-05T06:34:02;11.85;;;4.15;;
37847;SDS011;23688;33.130;-117.188;2022-07-05T06:36:30;16.98;;;3.83;;
37847;SDS011;23688;33.130;-117.188;2022-07-05T06:38:56;18.15;;;4.38;;
37847;SDS011;23688;33.130;-117.188;2022-07-05T06:41:22;16.23;;;5.22;;
37847;SDS011;23688;33.130;-117.188;2022-07-05T06:43:49;11.50;;;4.47;;
37847;SDS011;23688;33.130;-117.188;2022-07-05T06:46:15;17.52;;;5.07;;
37847;SDS011;23688;33.130;-117.188;2022-07-05T06:48:41;16.60;;;5.00;;
37847;SDS011;23688;33.130;-117.188;2022-07-05T06:51:07;14.65;;;5.25;;
37847;SDS011;23688;33.130;-117.188;2022-07-05T06:53:34;20.73;;;6.05;;
37847;SDS011;23688;33.130;-117.188;2022-07-05T06:56:00;16.88;;;5.20;;
37847;SDS011;23688;33.130;-117.188;2022-07-05T06:58:26;17.85;;;5.65;;
37847;SDS011;23688;33.130;-117.188;2022-07-05T07:00:53;16.98;;;6.13;;
37847;SDS011;23688;33.130;-117.188;2022-07-05T07:03:19;15.68;;;6.00;;
37847;SDS011;23688;33.130;-117.188;2022-07-05T07:05:45;17.08;;;6.43;;
37847;SDS011;23688;33.130;-117.188;2022-07-05T07:08:12;25.25;;;6.20;;
37847;SDS011;23688;33.130;-117.188;2022-07-05T07:10:58;15.23;;;5.63;;
37847;SDS011;23688;33.130;-117.188;2022-07-05T07:13:24;14.18;;;5.78;;
37847;SDS011;23688;33.130;-117.188;2022-07-05T07:15:51;13.98;;;4.75;;
37847;SDS011;23688;33.130;-117.188;2022-07-05T07:18:17;19.77;;;6.18;;
37847;SDS011;23688;33.130;-117.188;2022-07-05T07:20:44;16.23;;;4.82;;
37847;SDS011;23688;33.130;-117.188;2022-07-05T07:23:10;11.05;;;4.68;;
37847;SDS011;23688;33.130;-117.188;2022-07-05T07:25:37;15.07;;;4.90;;
37847;SDS011;23688;33.130;-117.188;2022-07-05T07:28:03;20.92;;;6.70;;
37847;SDS011;23688;33.130;-117.188;2022-07-05T07:30:30;20.35;;;10.43;;
37847;SDS011;23688;33.130;-117.188;2022-07-05T07:32:57;19.05;;;11.00;;
37847;SDS011;23688;33.130;-117.188;2022-07-05T07:35:23;19.83;;;9.98;;
37847;SDS011;23688;33.130;-117.188;2022-07-05T07:37:49;17.40;;;6.18;;
37847;SDS011;23688;33.130;-117.188;2022-07-05T07:40:16;18.25;;;5.93;;
37847;SDS011;23688;33.130;-117.188;2022-07-05T07:42:43;16.50;;;5.70;;
37847;SDS011;23688;33.130;-117.188;2022-07-05T07:45:09;17.73;;;5.20;;
37847;SDS011;23688;33.130;-117.188;2022-07-05T07:47:36;17.55;;;5.95;;
37847;SDS011;23688;33.130;-117.188;2022-07-05T07:50:03;25.65;;;6.70;;
37847;SDS011;23688;33.130;-117.188;2022-07-05T07:52:31;24.07;;;7.53;;
37847;SDS011;23688;33.130;-117.188;2022-07-05T07:54:59;19.77;;;6.55;;
37847;SDS011;23688;33.130;-117.188;2022-07-05T07:57:26;15.85;;;6.22;;
37847;SDS011;23688;33.130;-117.188;2022-07-05T07:59:53;16.02;;;6.28;;
37847;SDS011;23688;33.130;-117.188;2022-07-05T08:02:22;12.55;;;4.38;;
37847;SDS011;23688;33.130;-117.188;2022-07-05T08:04:49;16.15;;;4.85;;
37847;SDS011;23688;33.130;-117.188;2022-07-05T08:07:16;11.93;;;4.63;;
37847;SDS011;23688;33.130;-117.188;2022-07-05T08:09:43;17.30;;;5.07;;
37847;SDS011;23688;33.130;-117.188;2022-07-05T08:12:10;20.58;;;6.38;;
37847;SDS011;23688;33.130;-117.188;2022-07-05T08:14:37;22.27;;;5.28;;
37847;SDS011;23688;33.130;-117.188;2022-07-05T08:17:04;16.45;;;4.72;;
37847;SDS011;23688;33.130;-117.188;2022-07-05T08:19:33;17.30;;;4.65;;
37847;SDS011;23688;33.130;-117.188;2022-07-05T08:22:19;15.60;;;4.57;;
37847;SDS011;23688;33.130;-117.188;2022-07-05T08:24:46;10.80;;;4.15;;
37847;SDS011;23688;33.130;-117.188;2022-07-05T08:27:12;19.63;;;5.35;;
37847;SDS011;23688;33.130;-117.188;2022-07-05T08:29:39;16.80;;;5.43;;
37847;SDS011;23688;33.130;-117.188;2022-07-05T08:32:06;19.40;;;9.50;;
37847;SDS011;23688;33.130;-117.188;2022-07-05T08:34:32;19.88;;;10.23;;
37847;SDS011;23688;33.130;-117.188;2022-07-05T08:36:59;26.08;;;11.10;;
37847;SDS011;23688;33.130;-117.188;2022-07-05T08:39:25;26.50;;;11.40;;
37847;SDS011;23688;33.130;-117.188;2022-07-05T08:41:52;22.05;;;9.70;;
37847;SDS011;23688;33.130;-117.188;2022-07-05T08:44:22;27.38;;;11.82;;
37847;SDS011;23688;33.130;-117.188;2022-07-05T08:46:50;34.20;;;12.20;;
37847;SDS011;23688;33.130;-117.188;2022-07-05T08:49:22;28.40;;;11.05;;
37847;SDS011;23688;33.130;-117.188;2022-07-05T08:51:50;24.95;;;12.18;;
37847;SDS011;23688;33.130;-117.188;2022-07-05T08:54:19;31.38;;;12.20;;
37847;SDS011;23688;33.130;-117.188;2022-07-05T08:56:46;22.70;;;11.73;;
37847;SDS011;23688;33.130;-117.188;2022-07-05T08:59:13;24.48;;;10.75;;
37847;SDS011;23688;33.130;-117.188;2022-07-05T09:01:39;21.77;;;9.05;;
37847;SDS011;23688;33.130;-117.188;2022-07-05T09:04:06;17.60;;;8.38;;
37847;SDS011;23688;33.130;-117.188;2022-07-05T09:06:35;21.13;;;8.13;;
37847;SDS011;23688;33.130;-117.188;2022-07-05T09:09:04;14.65;;;6.82;;
37847;SDS011;23688;33.130;-117.188;2022-07-05T09:11:39;19.00;;;6.18;;
37847;SDS011;23688;33.130;-117.188;2022-07-05T09:14:15;18.40;;;5.40;;
37847;SDS011;23688;33.130;-117.188;2022-07-05T09:16:48;14.25;;;5.60;;
37847;SDS011;23688;33.130;-117.188;2022-07-05T09:19:14;12.90;;;4.80;;
37847;SDS011;23688;33.130;-117.188;2022-07-05T09:21:40;13.95;;;5.20;;
37847;SDS011;23688;33.130;-117.188;2022-07-05T09:24:10;21.58;;;4.90;;
37847;SDS011;23688;33.130;-117.188;2022-07-05T09:26:39;10.10;;;5.10;;
37847;SDS011;23688;33.130;-117.188;2022-07-05T09:29:08;14.23;;;4.70;;
37847;SDS011;23688;33.130;-117.188;2022-07-05T09:31:40;14.90;;;6.07;;
37847;SDS011;23688;33.130;-117.188;2022-07-05T09:34:10;18.58;;;6.32;;
37847;SDS011;23688;33.130;-117.188;2022-07-05T09:36:49;12.63;;;4.78;;
37847;SDS011;23688;33.130;-117.188;2022-07-05T09:47:19;14.25;;;5.60;;
37847;SDS011;23688;33.130;-117.188;2022-07-05T09:55:05;20.80;;;6.00;;
37847;SDS011;23688;33.130;-117.188;2022-07-05T09:57:37;31.25;;;5.90;;
37847;SDS011;23688;33.130;-117.188;2022-07-05T10:00:06;21.35;;;5.32;;
37847;SDS011;23688;33.130;-117.188;2022-07-05T10:07:38;22.27;;;5.45;;
37847;SDS011;23688;33.130;-117.188;2022-07-05T10:10:06;18.05;;;5.03;;
37847;SDS011;23688;33.130;-117.188;2022-07-05T10:12:40;18.38;;;4.93;;
37847;SDS011;23688;33.130;-117.188;2022-07-05T10:15:08;17.17;;;4.57;;
37847;SDS011;23688;33.130;-117.188;2022-07-05T10:22:36;13.38;;;4.88;;
37847;SDS011;23688;33.130;-117.188;2022-07-05T10:25:03;17.73;;;5.57;;
37847;SDS011;23688;33.130;-117.188;2022-07-05T10:27:30;18.60;;;5.57;;
37847;SDS011;23688;33.130;-117.188;2022-07-05T10:29:57;19.48;;;5.88;;
37847;SDS011;23688;33.130;-117.188;2022-07-05T10:32:25;14.95;;;5.75;;
37847;SDS011;23688;33.130;-117.188;2022-07-05T10:34:53;18.48;;;5.68;;
37847;SDS011;23688;33.130;-117.188;2022-07-05T10:37:24;15.05;;;4.95;;
37847;SDS011;23688;33.130;-117.188;2022-07-05T10:39:54;14.40;;;5.45;;
37847;SDS011;23688;33.130;-117.188;2022-07-05T10:42:24;20.40;;;7.13;;
37847;SDS011;23688;33.130;-117.188;2022-07-05T10:44:55;19.90;;;6.57;;
37847;SDS011;23688;33.130;-117.188;2022-07-05T10:47:21;16.92;;;5.65;;
37847;SDS011;23688;33.130;-117.188;2022-07-05T10:50:01;17.50;;;5.68;;
37847;SDS011;23688;33.130;-117.188;2022-07-05T10:52:30;15.65;;;5.93;;
37847;SDS011;23688;33.130;-117.188;2022-07-05T11:00:46;19.52;;;5.88;;
37847;SDS011;23688;33.130;-117.188;2022-07-05T11:06:01;16.00;;;5.78;;
37847;SDS011;23688;33.130;-117.188;2022-07-05T11:08:30;14.73;;;5.65;;
37847;SDS011;23688;33.130;-117.188;2022-07-05T11:11:16;13.85;;;5.03;;
37847;SDS011;23688;33.130;-117.188;2022-07-05T11:13:53;11.30;;;5.07;;
37847;SDS011;23688;33.130;-117.188;2022-07-05T11:18:52;18.30;;;4.65;;
37847;SDS011;23688;33.130;-117.188;2022-07-05T11:21:30;11.38;;;4.38;;
37847;SDS011;23688;33.130;-117.188;2022-07-05T11:26:49;16.25;;;4.78;;
37847;SDS011;23688;33.130;-117.188;2022-07-05T11:32:11;10.82;;;4.85;;
37847;SDS011;23688;33.130;-117.188;2022-07-05T11:34:39;18.05;;;5.10;;
37847;SDS011;23688;33.130;-117.188;2022-07-05T11:37:19;13.23;;;5.30;;
37847;SDS011;23688;33.130;-117.188;2022-07-05T11:42:36;15.73;;;4.78;;
37847;SDS011;23688;33.130;-117.188;2022-07-05T11:45:05;15.23;;;4.88;;
37847;SDS011;23688;33.130;-117.188;2022-07-05T11:47:32;16.58;;;4.63;;
37847;SDS011;23688;33.130;-117.188;2022-07-05T11:50:00;16.60;;;5.55;;
37847;SDS011;23688;33.130;-117.188;2022-07-05T11:52:36;13.88;;;4.80;;
37847;SDS011;23688;33.130;-117.188;2022-07-05T11:55:07;15.80;;;4.68;;
37847;SDS011;23688;33.130;-117.188;2022-07-05T11:57:35;15.35;;;4.63;;
37847;SDS011;23688;33.130;-117.188;2022-07-05T12:00:02;20.23;;;4.60;;
37847;SDS011;23688;33.130;-117.188;2022-07-05T12:02:30;17.87;;;5.87;;
37847;SDS011;23688;33.130;-117.188;2022-07-05T12:04:56;15.48;;;4.70;;
37847;SDS011;23688;33.130;-117.188;2022-07-05T12:07:24;18.60;;;5.82;;
37847;SDS011;23688;33.130;-117.188;2022-07-05T12:09:53;10.98;;;4.60;;
37847;SDS011;23688;33.130;-117.188;2022-07-05T12:12:38;15.38;;;4.13;;
37847;SDS011;23688;33.130;-117.188;2022-07-05T12:15:08;11.65;;;4.20;;
37847;SDS011;23688;33.130;-117.188;2022-07-05T12:17:40;18.10;;;4.75;;
37847;SDS011;23688;33.130;-117.188;2022-07-05T12:20:08;15.20;;;4.80;;
37847;SDS011;23688;33.130;-117.188;2022-07-05T12:22:40;11.93;;;4.28;;
37847;SDS011;23688;33.130;-117.188;2022-07-05T12:25:12;16.15;;;4.90;;
37847;SDS011;23688;33.130;-117.188;2022-07-05T12:27:40;15.20;;;4.35;;
37847;SDS011;23688;33.130;-117.188;2022-07-05T12:30:08;21.63;;;5.80;;
37847;SDS011;23688;33.130;-117.188;2022-07-05T12:35:32;13.52;;;4.50;;
37847;SDS011;23688;33.130;-117.188;2022-07-05T12:38:02;14.43;;;4.57;;
37847;SDS011;23688;33.130;-117.188;2022-07-05T12:40:34;14.20;;;4.38;;
37847;SDS011;23688;33.130;-117.188;2022-07-05T12:45:33;12.98;;;4.32;;
37847;SDS011;23688;33.130;-117.188;2022-07-05T12:48:00;14.40;;;4.63;;
37847;SDS011;23688;33.130;-117.188;2022-07-05T12:50:46;14.73;;;3.65;;
37847;SDS011;23688;33.130;-117.188;2022-07-05T12:53:16;10.23;;;4.07;;
37847;SDS011;23688;33.130;-117.188;2022-07-05T12:56:02;10.35;;;4.60;;
37847;SDS011;23688;33.130;-117.188;2022-07-05T12:58:50;14.43;;;4.07;;
37847;SDS011;23688;33.130;-117.188;2022-07-05T13:01:20;8.77;;;3.65;;
37847;SDS011;23688;33.130;-117.188;2022-07-05T13:09:06;14.73;;;4.65;;
37847;SDS011;23688;33.130;-117.188;2022-07-05T13:11:32;12.65;;;4.28;;
37847;SDS011;23688;33.130;-117.188;2022-07-05T13:13:59;15.80;;;4.43;;
37847;SDS011;23688;33.130;-117.188;2022-07-05T13:16:25;16.08;;;4.07;;
37847;SDS011;23688;33.130;-117.188;2022-07-05T13:18:52;13.65;;;4.05;;
37847;SDS011;23688;33.130;-117.188;2022-07-05T13:21:18;13.75;;;4.30;;
37847;SDS011;23688;33.130;-117.188;2022-07-05T13:23:44;9.63;;;4.07;;
37847;SDS011;23688;33.130;-117.188;2022-07-05T13:26:10;13.55;;;4.38;;
37847;SDS011;23688;33.130;-117.188;2022-07-05T13:28:37;15.85;;;4.82;;
37847;SDS011;23688;33.130;-117.188;2022-07-05T13:31:03;12.45;;;4.13;;
37847;SDS011;23688;33.130;-117.188;2022-07-05T13:33:31;17.23;;;4.88;;
37847;SDS011;23688;33.130;-117.188;2022-07-05T13:35:57;10.00;;;4.50;;
37847;SDS011;23688;33.130;-117.188;2022-07-05T13:38:23;13.02;;;4.65;;
37847;SDS011;23688;33.130;-117.188;2022-07-05T13:40:50;15.65;;;4.28;;
37847;SDS011;23688;33.130;-117.188;2022-07-05T13:43:16;12.48;;;4.53;;
37847;SDS011;23688;33.130;-117.188;2022-07-05T13:45:42;16.02;;;4.45;;
37847;SDS011;23688;33.130;-117.188;2022-07-05T13:48:08;13.40;;;4.68;;
37847;SDS011;23688;33.130;-117.188;2022-07-05T13:50:35;13.93;;;4.70;;
37847;SDS011;23688;33.130;-117.188;2022-07-05T13:53:02;14.82;;;4.57;;
37847;SDS011;23688;33.130;-117.188;2022-07-05T13:55:28;16.27;;;4.72;;
37847;SDS011;23688;33.130;-117.188;2022-07-05T13:57:55;17.15;;;4.68;;
37847;SDS011;23688;33.130;-117.188;2022-07-05T14:00:23;15.90;;;4.57;;
37847;SDS011;23688;33.130;-117.188;2022-07-05T14:02:50;14.05;;;5.13;;
37847;SDS011;23688;33.130;-117.188;2022-07-05T14:05:17;13.40;;;5.38;;
37847;SDS011;23688;33.130;-117.188;2022-07-05T14:07:46;13.18;;;4.35;;
37847;SDS011;23688;33.130;-117.188;2022-07-05T14:10:13;16.23;;;4.72;;
37847;SDS011;23688;33.130;-117.188;2022-07-05T14:12:40;17.08;;;5.20;;
37847;SDS011;23688;33.130;-117.188;2022-07-05T14:15:07;16.50;;;5.43;;
37847;SDS011;23688;33.130;-117.188;2022-07-05T14:17:34;12.50;;;5.13;;
37847;SDS011;23688;33.130;-117.188;2022-07-05T14:20:01;11.23;;;4.88;;
37847;SDS011;23688;33.130;-117.188;2022-07-05T14:22:27;14.10;;;4.70;;
37847;SDS011;23688;33.130;-117.188;2022-07-05T14:24:53;10.27;;;4.45;;
37847;SDS011;23688;33.130;-117.188;2022-07-05T14:27:20;12.98;;;4.40;;
37847;SDS011;23688;33.130;-117.188;2022-07-05T14:29:46;10.88;;;4.47;;
37847;SDS011;23688;33.130;-117.188;2022-07-05T14:32:12;17.35;;;5.18;;
37847;SDS011;23688;33.130;-117.188;2022-07-05T14:34:38;16.63;;;4.97;;
37847;SDS011;23688;33.130;-117.188;2022-07-05T14:37:05;14.93;;;4.90;;
37847;SDS011;23688;33.130;-117.188;2022-07-05T14:39:31;16.67;;;5.80;;
37847;SDS011;23688;33.130;-117.188;2022-07-05T14:41:57;15.88;;;4.78;;
37847;SDS011;23688;33.130;-117.188;2022-07-05T14:44:24;17.30;;;5.38;;
37847;SDS011;23688;33.130;-117.188;2022-07-05T14:46:50;12.23;;;5.80;;
37847;SDS011;23688;33.130;-117.188;2022-07-05T14:49:16;16.10;;;4.57;;
37847;SDS011;23688;33.130;-117.188;2022-07-05T14:51:43;13.00;;;4.55;;
37847;SDS011;23688;33.130;-117.188;2022-07-05T14:54:09;15.98;;;5.13;;